sensor_id;sensor_type;location;lat;lon;timestamp;temperature;humidity
19522;DHT22;9905;52.126;5.596;2024-01-30T00:01:07;8.30;99.90
19522;DHT22;9905;52.126;5.596;2024-01-30T00:03:34;8.30;99.90
19522;DHT22;9905;52.126;5.596;2024-01-30T00:06:03;8.30;99.90
19522;DHT22;9905;52.126;5.596;2024-01-30T00:08:29;8.20;99.90
19522;DHT22;9905;52.126;5.596;2024-01-30T00:10:57;8.20;99.90
19522;DHT22;9905;52.126;5.596;2024-01-30T00:13:24;8.20;99.90
19522;DHT22;9905;52.126;5.596;2024-01-30T00:15:51;8.20;99.90
19522;DHT22;9905;52.126;5.596;2024-01-30T00:18:18;8.20;99.90
19522;DHT22;9905;52.126;5.596;2024-01-30T00:20:45;8.20;99.90
19522;DHT22;9905;52.126;5.596;2024-01-30T00:23:12;8.20;99.90
19522;DHT22;9905;52.126;5.596;2024-01-30T00:25:38;8.10;99.90
19522;DHT22;9905;52.126;5.596;2024-01-30T00:28:06;8.10;99.90
19522;DHT22;9905;52.126;5.596;2024-01-30T00:30:33;8.10;99.90
19522;DHT22;9905;52.126;5.596;2024-01-30T00:33:00;8.10;99.90
19522;DHT22;9905;52.126;5.596;2024-01-30T00:35:27;8.10;99.90
19522;DHT22;9905;52.126;5.596;2024-01-30T00:37:54;8.10;99.90
19522;DHT22;9905;52.126;5.596;2024-01-30T00:40:21;8.10;99.90
19522;DHT22;9905;52.126;5.596;2024-01-30T00:42:48;8.10;99.90
19522;DHT22;9905;52.126;5.596;2024-01-30T00:45:16;8.10;99.90
19522;DHT22;9905;52.126;5.596;2024-01-30T00:47:43;8.10;99.90
19522;DHT22;9905;52.126;5.596;2024-01-30T00:50:10;8.10;99.90
19522;DHT22;9905;52.126;5.596;2024-01-30T00:52:37;8.10;99.90
19522;DHT22;9905;52.126;5.596;2024-01-30T00:55:07;8.10;99.90
19522;DHT22;9905;52.126;5.596;2024-01-30T00:57:33;8.10;99.90
19522;DHT22;9905;52.126;5.596;2024-01-30T01:00:00;8.10;99.90
19522;DHT22;9905;52.126;5.596;2024-01-30T01:02:28;8.10;99.90
19522;DHT22;9905;52.126;5.596;2024-01-30T01:04:55;8.00;99.90
19522;DHT22;9905;52.126;5.596;2024-01-30T01:07:22;8.00;99.90
19522;DHT22;9905;52.126;5.596;2024-01-30T01:09:49;8.00;99.90
19522;DHT22;9905;52.126;5.596;2024-01-30T01:12:15;8.00;99.90
19522;DHT22;9905;52.126;5.596;2024-01-30T01:14:42;7.90;99.90
19522;DHT22;9905;52.126;5.596;2024-01-30T01:17:09;7.90;99.90
19522;DHT22;9905;52.126;5.596;2024-01-30T01:19:37;7.90;99.90
19522;DHT22;9905;52.126;5.596;2024-01-30T01:22:04;7.90;99.90
19522;DHT22;9905;52.126;5.596;2024-01-30T01:24:31;7.90;99.90
19522;DHT22;9905;52.126;5.596;2024-01-30T01:26:58;7.90;99.90
19522;DHT22;9905;52.126;5.596;2024-01-30T01:29:25;7.90;99.90
19522;DHT22;9905;52.126;5.596;2024-01-30T01:31:54;7.80;99.90
19522;DHT22;9905;52.126;5.596;2024-01-30T01:34:21;7.80;99.90
19522;DHT22;9905;52.126;5.596;2024-01-30T01:36:50;7.80;99.90
19522;DHT22;9905;52.126;5.596;2024-01-30T01:39:21;7.80;99.90
19522;DHT22;9905;52.126;5.596;2024-01-30T01:41:48;7.80;99.90
19522;DHT22;9905;52.126;5.596;2024-01-30T01:44:15;7.80;99.90
19522;DHT22;9905;52.126;5.596;2024-01-30T01:46:42;7.70;99.90
19522;DHT22;9905;52.126;5.596;2024-01-30T01:49:09;7.70;99.90
19522;DHT22;9905;52.126;5.596;2024-01-30T01:51:36;7.70;99.90
19522;DHT22;9905;52.126;5.596;2024-01-30T01:54:08;7.70;99.90
19522;DHT22;9905;52.126;5.596;2024-01-30T01:56:35;7.70;99.90
19522;DHT22;9905;52.126;5.596;2024-01-30T01:59:05;7.70;99.90
19522;DHT22;9905;52.126;5.596;2024-01-30T02:01:33;7.70;99.90
19522;DHT22;9905;52.126;5.596;2024-01-30T02:04:00;7.70;99.90
19522;DHT22;9905;52.126;5.596;2024-01-30T02:06:28;7.70;99.90
19522;DHT22;9905;52.126;5.596;2024-01-30T02:08:55;7.70;99.90
19522;DHT22;9905;52.126;5.596;2024-01-30T02:11:23;7.70;99.90
19522;DHT22;9905;52.126;5.596;2024-01-30T02:13:50;7.70;99.90
19522;DHT22;9905;52.126;5.596;2024-01-30T02:16:17;7.70;99.90
19522;DHT22;9905;52.126;5.596;2024-01-30T02:18:44;7.60;99.90
19522;DHT22;9905;52.126;5.596;2024-01-30T02:21:15;7.70;99.90
19522;DHT22;9905;52.126;5.596;2024-01-30T02:23:43;7.70;99.90
19522;DHT22;9905;52.126;5.596;2024-01-30T02:26:10;7.60;99.90
19522;DHT22;9905;52.126;5.596;2024-01-30T02:28:37;7.70;99.90
19522;DHT22;9905;52.126;5.596;2024-01-30T02:31:05;7.60;99.90
19522;DHT22;9905;52.126;5.596;2024-01-30T02:33:31;7.70;99.90
19522;DHT22;9905;52.126;5.596;2024-01-30T02:35:58;7.60;99.90
19522;DHT22;9905;52.126;5.596;2024-01-30T02:38:26;7.70;99.90
19522;DHT22;9905;52.126;5.596;2024-01-30T02:40:54;7.70;99.90
19522;DHT22;9905;52.126;5.596;2024-01-30T02:43:21;7.70;99.90
19522;DHT22;9905;52.126;5.596;2024-01-30T02:45:48;7.70;99.90
19522;DHT22;9905;52.126;5.596;2024-01-30T02:48:15;7.60;99.90
19522;DHT22;9905;52.126;5.596;2024-01-30T02:50:42;7.60;99.90
19522;DHT22;9905;52.126;5.596;2024-01-30T02:53:09;7.60;99.90
19522;DHT22;9905;52.126;5.596;2024-01-30T02:55:37;7.60;99.90
19522;DHT22;9905;52.126;5.596;2024-01-30T02:58:04;7.60;99.90
19522;DHT22;9905;52.126;5.596;2024-01-30T03:00:30;7.70;99.90
19522;DHT22;9905;52.126;5.596;2024-01-30T03:02:57;7.60;99.90
19522;DHT22;9905;52.126;5.596;2024-01-30T03:05:24;7.60;99.90
19522;DHT22;9905;52.126;5.596;2024-01-30T03:07:50;7.70;99.90
19522;DHT22;9905;52.126;5.596;2024-01-30T03:10:17;7.70;99.90
19522;DHT22;9905;52.126;5.596;2024-01-30T03:12:45;7.70;99.90
19522;DHT22;9905;52.126;5.596;2024-01-30T03:15:12;7.70;99.90
19522;DHT22;9905;52.126;5.596;2024-01-30T03:17:39;7.70;99.90
19522;DHT22;9905;52.126;5.596;2024-01-30T03:20:06;7.70;99.90
19522;DHT22;9905;52.126;5.596;2024-01-30T03:22:33;7.70;99.90
19522;DHT22;9905;52.126;5.596;2024-01-30T03:25:00;7.60;99.90
19522;DHT22;9905;52.126;5.596;2024-01-30T03:27:27;7.70;99.90
19522;DHT22;9905;52.126;5.596;2024-01-30T03:29:55;7.60;99.90
19522;DHT22;9905;52.126;5.596;2024-01-30T03:32:22;7.70;99.90
19522;DHT22;9905;52.126;5.596;2024-01-30T03:34:49;7.70;99.90
19522;DHT22;9905;52.126;5.596;2024-01-30T03:37:15;7.70;99.90
19522;DHT22;9905;52.126;5.596;2024-01-30T03:39:42;7.70;99.90
19522;DHT22;9905;52.126;5.596;2024-01-30T03:42:09;7.70;99.90
19522;DHT22;9905;52.126;5.596;2024-01-30T03:44:36;7.70;99.90
19522;DHT22;9905;52.126;5.596;2024-01-30T03:47:04;7.80;99.90
19522;DHT22;9905;52.126;5.596;2024-01-30T03:49:31;7.80;99.90
19522;DHT22;9905;52.126;5.596;2024-01-30T03:51:57;7.80;99.90
19522;DHT22;9905;52.126;5.596;2024-01-30T03:54:24;7.80;99.90
19522;DHT22;9905;52.126;5.596;2024-01-30T03:56:51;7.80;99.90
19522;DHT22;9905;52.126;5.596;2024-01-30T03:59:17;7.80;99.90
19522;DHT22;9905;52.126;5.596;2024-01-30T04:01:49;7.80;99.90
19522;DHT22;9905;52.126;5.596;2024-01-30T04:04:17;7.90;99.90
19522;DHT22;9905;52.126;5.596;2024-01-30T04:06:44;7.90;99.90
19522;DHT22;9905;52.126;5.596;2024-01-30T04:09:11;7.80;99.90
19522;DHT22;9905;52.126;5.596;2024-01-30T04:11:38;7.90;99.90
19522;DHT22;9905;52.126;5.596;2024-01-30T04:14:05;7.90;99.90
19522;DHT22;9905;52.126;5.596;2024-01-30T04:16:32;7.90;99.90
19522;DHT22;9905;52.126;5.596;2024-01-30T04:18:58;7.90;99.90
19522;DHT22;9905;52.126;5.596;2024-01-30T04:21:26;7.90;99.90
19522;DHT22;9905;52.126;5.596;2024-01-30T04:23:53;7.90;99.90
19522;DHT22;9905;52.126;5.596;2024-01-30T04:26:20;7.90;99.90
19522;DHT22;9905;52.126;5.596;2024-01-30T04:28:47;7.90;99.90
19522;DHT22;9905;52.126;5.596;2024-01-30T04:31:14;7.90;99.90
19522;DHT22;9905;52.126;5.596;2024-01-30T04:33:40;7.90;99.90
19522;DHT22;9905;52.126;5.596;2024-01-30T04:36:08;7.90;99.90
19522;DHT22;9905;52.126;5.596;2024-01-30T04:38:38;7.90;99.90
19522;DHT22;9905;52.126;5.596;2024-01-30T04:41:04;7.90;99.90
19522;DHT22;9905;52.126;5.596;2024-01-30T04:43:31;7.90;99.90
19522;DHT22;9905;52.126;5.596;2024-01-30T04:45:58;7.90;99.90
19522;DHT22;9905;52.126;5.596;2024-01-30T04:48:25;8.00;99.90
19522;DHT22;9905;52.126;5.596;2024-01-30T04:50:51;8.00;99.90
19522;DHT22;9905;52.126;5.596;2024-01-30T04:53:18;8.00;99.90
19522;DHT22;9905;52.126;5.596;2024-01-30T04:55:46;8.00;99.90
19522;DHT22;9905;52.126;5.596;2024-01-30T04:58:13;8.00;99.90
19522;DHT22;9905;52.126;5.596;2024-01-30T05:00:40;8.00;99.90
19522;DHT22;9905;52.126;5.596;2024-01-30T05:03:07;8.00;99.90
19522;DHT22;9905;52.126;5.596;2024-01-30T05:05:33;7.90;99.90
19522;DHT22;9905;52.126;5.596;2024-01-30T05:08:00;8.00;99.90
19522;DHT22;9905;52.126;5.596;2024-01-30T05:10:27;8.00;99.90
19522;DHT22;9905;52.126;5.596;2024-01-30T05:12:56;8.00;99.90
19522;DHT22;9905;52.126;5.596;2024-01-30T05:15:23;8.00;99.90
19522;DHT22;9905;52.126;5.596;2024-01-30T05:17:50;8.00;99.90
19522;DHT22;9905;52.126;5.596;2024-01-30T05:20:16;8.00;99.90
19522;DHT22;9905;52.126;5.596;2024-01-30T05:22:43;8.00;99.90
19522;DHT22;9905;52.126;5.596;2024-01-30T05:25:11;8.00;99.90
19522;DHT22;9905;52.126;5.596;2024-01-30T05:27:38;8.00;99.90
19522;DHT22;9905;52.126;5.596;2024-01-30T05:30:07;8.10;99.90
19522;DHT22;9905;52.126;5.596;2024-01-30T05:32:34;8.10;99.90
19522;DHT22;9905;52.126;5.596;2024-01-30T05:35:01;8.00;99.90
19522;DHT22;9905;52.126;5.596;2024-01-30T05:37:28;8.00;99.90
19522;DHT22;9905;52.126;5.596;2024-01-30T05:39:55;8.10;99.90
19522;DHT22;9905;52.126;5.596;2024-01-30T05:42:23;8.10;99.90
19522;DHT22;9905;52.126;5.596;2024-01-30T05:44:50;8.10;99.90
19522;DHT22;9905;52.126;5.596;2024-01-30T05:47:18;8.10;99.90
19522;DHT22;9905;52.126;5.596;2024-01-30T05:49:44;8.10;99.90
19522;DHT22;9905;52.126;5.596;2024-01-30T05:52:11;8.20;99.90
19522;DHT22;9905;52.126;5.596;2024-01-30T05:54:38;8.20;99.90
19522;DHT22;9905;52.126;5.596;2024-01-30T05:57:05;8.20;99.90
19522;DHT22;9905;52.126;5.596;2024-01-30T05:59:32;8.10;99.90
19522;DHT22;9905;52.126;5.596;2024-01-30T06:01:59;8.10;99.90
19522;DHT22;9905;52.126;5.596;2024-01-30T06:04:27;8.10;99.90
19522;DHT22;9905;52.126;5.596;2024-01-30T06:06:53;8.20;99.90
19522;DHT22;9905;52.126;5.596;2024-01-30T06:09:20;8.20;99.90
19522;DHT22;9905;52.126;5.596;2024-01-30T06:11:47;8.20;99.90
19522;DHT22;9905;52.126;5.596;2024-01-30T06:14:14;8.20;99.90
19522;DHT22;9905;52.126;5.596;2024-01-30T06:16:41;8.20;99.90
19522;DHT22;9905;52.126;5.596;2024-01-30T06:19:07;8.10;99.90
19522;DHT22;9905;52.126;5.596;2024-01-30T06:21:35;8.10;99.90
19522;DHT22;9905;52.126;5.596;2024-01-30T06:24:04;8.20;99.90
19522;DHT22;9905;52.126;5.596;2024-01-30T06:26:30;8.20;99.90
19522;DHT22;9905;52.126;5.596;2024-01-30T06:28:57;8.20;99.90
19522;DHT22;9905;52.126;5.596;2024-01-30T06:31:24;8.20;99.90
19522;DHT22;9905;52.126;5.596;2024-01-30T06:33:51;8.20;99.90
19522;DHT22;9905;52.126;5.596;2024-01-30T06:36:17;8.30;99.90
19522;DHT22;9905;52.126;5.596;2024-01-30T06:38:45;8.30;99.90
19522;DHT22;9905;52.126;5.596;2024-01-30T06:41:12;8.30;99.90
19522;DHT22;9905;52.126;5.596;2024-01-30T06:43:39;8.30;99.90
19522;DHT22;9905;52.126;5.596;2024-01-30T06:46:06;8.30;99.90
19522;DHT22;9905;52.126;5.596;2024-01-30T06:48:32;8.40;99.90
19522;DHT22;9905;52.126;5.596;2024-01-30T06:50:59;8.30;99.90
19522;DHT22;9905;52.126;5.596;2024-01-30T06:53:26;8.30;99.90
19522;DHT22;9905;52.126;5.596;2024-01-30T06:55:54;8.30;99.90
19522;DHT22;9905;52.126;5.596;2024-01-30T06:58:21;8.30;99.90
19522;DHT22;9905;52.126;5.596;2024-01-30T07:00:47;8.30;99.90
19522;DHT22;9905;52.126;5.596;2024-01-30T07:03:14;8.40;99.90
19522;DHT22;9905;52.126;5.596;2024-01-30T07:05:41;8.40;99.90
19522;DHT22;9905;52.126;5.596;2024-01-30T07:08:08;8.40;99.90
19522;DHT22;9905;52.126;5.596;2024-01-30T07:10:34;8.40;99.90
19522;DHT22;9905;52.126;5.596;2024-01-30T07:13:03;8.40;99.90
19522;DHT22;9905;52.126;5.596;2024-01-30T07:15:31;8.50;99.90
19522;DHT22;9905;52.126;5.596;2024-01-30T07:17:58;8.50;99.90
19522;DHT22;9905;52.126;5.596;2024-01-30T07:20:25;8.50;99.90
19522;DHT22;9905;52.126;5.596;2024-01-30T07:22:51;8.50;99.90
19522;DHT22;9905;52.126;5.596;2024-01-30T07:25:18;8.50;99.90
19522;DHT22;9905;52.126;5.596;2024-01-30T07:27:45;8.50;99.90
19522;DHT22;9905;52.126;5.596;2024-01-30T07:30:13;8.50;99.90
19522;DHT22;9905;52.126;5.596;2024-01-30T07:32:42;8.50;99.90
19522;DHT22;9905;52.126;5.596;2024-01-30T07:35:09;8.50;99.90
19522;DHT22;9905;52.126;5.596;2024-01-30T07:37:37;8.50;99.90
19522;DHT22;9905;52.126;5.596;2024-01-30T07:40:04;8.40;99.90
19522;DHT22;9905;52.126;5.596;2024-01-30T07:42:32;8.50;99.90
19522;DHT22;9905;52.126;5.596;2024-01-30T07:44:59;8.60;99.90
19522;DHT22;9905;52.126;5.596;2024-01-30T07:47:27;8.60;99.90
19522;DHT22;9905;52.126;5.596;2024-01-30T07:49:53;8.60;99.90
19522;DHT22;9905;52.126;5.596;2024-01-30T07:52:20;8.70;99.90
19522;DHT22;9905;52.126;5.596;2024-01-30T07:54:50;8.80;99.90
19522;DHT22;9905;52.126;5.596;2024-01-30T07:57:17;8.80;99.90
19522;DHT22;9905;52.126;5.596;2024-01-30T07:59:44;8.90;99.90
19522;DHT22;9905;52.126;5.596;2024-01-30T08:02:12;9.00;99.90
19522;DHT22;9905;52.126;5.596;2024-01-30T08:04:40;9.10;99.90
19522;DHT22;9905;52.126;5.596;2024-01-30T08:07:07;9.10;99.90
19522;DHT22;9905;52.126;5.596;2024-01-30T08:09:34;9.10;99.90
19522;DHT22;9905;52.126;5.596;2024-01-30T08:12:00;9.20;99.90
19522;DHT22;9905;52.126;5.596;2024-01-30T08:14:27;9.20;99.90
19522;DHT22;9905;52.126;5.596;2024-01-30T08:16:54;9.30;99.90
19522;DHT22;9905;52.126;5.596;2024-01-30T08:19:20;9.30;99.90
19522;DHT22;9905;52.126;5.596;2024-01-30T08:21:49;9.30;99.90
19522;DHT22;9905;52.126;5.596;2024-01-30T08:24:15;9.30;99.90
19522;DHT22;9905;52.126;5.596;2024-01-30T08:26:42;9.40;99.90
19522;DHT22;9905;52.126;5.596;2024-01-30T08:29:09;9.40;99.90
19522;DHT22;9905;52.126;5.596;2024-01-30T08:31:36;9.50;99.90
19522;DHT22;9905;52.126;5.596;2024-01-30T08:34:02;9.50;99.90
19522;DHT22;9905;52.126;5.596;2024-01-30T08:36:29;9.50;99.90
19522;DHT22;9905;52.126;5.596;2024-01-30T08:38:58;9.50;99.90
19522;DHT22;9905;52.126;5.596;2024-01-30T08:41:25;9.50;99.90
19522;DHT22;9905;52.126;5.596;2024-01-30T08:43:52;9.60;99.90
19522;DHT22;9905;52.126;5.596;2024-01-30T08:46:19;9.60;99.90
19522;DHT22;9905;52.126;5.596;2024-01-30T08:48:46;9.70;99.90
19522;DHT22;9905;52.126;5.596;2024-01-30T08:51:14;9.70;99.90
19522;DHT22;9905;52.126;5.596;2024-01-30T08:53:41;9.80;99.90
19522;DHT22;9905;52.126;5.596;2024-01-30T08:56:09;9.80;99.90
19522;DHT22;9905;52.126;5.596;2024-01-30T08:58:35;9.80;99.90
19522;DHT22;9905;52.126;5.596;2024-01-30T09:01:02;9.80;99.90
19522;DHT22;9905;52.126;5.596;2024-01-30T09:03:31;9.80;99.90
19522;DHT22;9905;52.126;5.596;2024-01-30T09:05:57;9.80;99.90
19522;DHT22;9905;52.126;5.596;2024-01-30T09:08:24;9.90;99.90
19522;DHT22;9905;52.126;5.596;2024-01-30T09:10:51;9.90;99.90
19522;DHT22;9905;52.126;5.596;2024-01-30T09:13:19;9.90;99.90
19522;DHT22;9905;52.126;5.596;2024-01-30T09:15:46;9.90;99.90
19522;DHT22;9905;52.126;5.596;2024-01-30T09:18:12;9.90;99.90
19522;DHT22;9905;52.126;5.596;2024-01-30T09:20:39;9.90;99.90
19522;DHT22;9905;52.126;5.596;2024-01-30T09:23:06;10.00;99.90
19522;DHT22;9905;52.126;5.596;2024-01-30T09:25:33;10.00;99.90
19522;DHT22;9905;52.126;5.596;2024-01-30T09:28:00;10.00;99.90
19522;DHT22;9905;52.126;5.596;2024-01-30T09:30:28;10.10;99.90
19522;DHT22;9905;52.126;5.596;2024-01-30T09:32:55;10.10;99.90
19522;DHT22;9905;52.126;5.596;2024-01-30T09:35:22;10.10;99.90
19522;DHT22;9905;52.126;5.596;2024-01-30T09:37:48;10.10;99.90
19522;DHT22;9905;52.126;5.596;2024-01-30T09:40:17;10.20;99.90
19522;DHT22;9905;52.126;5.596;2024-01-30T09:42:46;10.20;99.90
19522;DHT22;9905;52.126;5.596;2024-01-30T09:45:14;10.30;99.90
19522;DHT22;9905;52.126;5.596;2024-01-30T09:47:44;10.30;99.90
19522;DHT22;9905;52.126;5.596;2024-01-30T09:50:12;10.30;99.90
19522;DHT22;9905;52.126;5.596;2024-01-30T09:52:39;10.30;99.90
19522;DHT22;9905;52.126;5.596;2024-01-30T09:55:06;10.40;99.90
19522;DHT22;9905;52.126;5.596;2024-01-30T09:57:35;10.40;99.90
19522;DHT22;9905;52.126;5.596;2024-01-30T10:00:02;10.40;99.90
19522;DHT22;9905;52.126;5.596;2024-01-30T10:02:30;10.50;99.90
19522;DHT22;9905;52.126;5.596;2024-01-30T10:04:59;10.50;99.90
19522;DHT22;9905;52.126;5.596;2024-01-30T10:07:26;10.50;99.90
19522;DHT22;9905;52.126;5.596;2024-01-30T10:09:53;10.60;99.90
19522;DHT22;9905;52.126;5.596;2024-01-30T10:12:22;10.60;99.90
19522;DHT22;9905;52.126;5.596;2024-01-30T10:14:48;10.70;99.90
19522;DHT22;9905;52.126;5.596;2024-01-30T10:17:15;10.70;99.90
19522;DHT22;9905;52.126;5.596;2024-01-30T10:19:42;10.80;99.90
19522;DHT22;9905;52.126;5.596;2024-01-30T10:22:10;10.80;99.90
19522;DHT22;9905;52.126;5.596;2024-01-30T10:24:37;10.90;99.90
19522;DHT22;9905;52.126;5.596;2024-01-30T10:27:05;11.00;99.90
19522;DHT22;9905;52.126;5.596;2024-01-30T10:29:32;11.10;99.90
19522;DHT22;9905;52.126;5.596;2024-01-30T10:31:59;11.10;99.90
19522;DHT22;9905;52.126;5.596;2024-01-30T10:34:26;11.20;99.90
19522;DHT22;9905;52.126;5.596;2024-01-30T10:37:07;11.20;99.90
19522;DHT22;9905;52.126;5.596;2024-01-30T10:39:39;11.20;99.90
19522;DHT22;9905;52.126;5.596;2024-01-30T10:42:09;11.30;99.90
19522;DHT22;9905;52.126;5.596;2024-01-30T10:44:44;11.30;99.90
19522;DHT22;9905;52.126;5.596;2024-01-30T10:47:17;11.40;99.90
19522;DHT22;9905;52.126;5.596;2024-01-30T10:49:45;11.40;99.90
19522;DHT22;9905;52.126;5.596;2024-01-30T10:52:13;11.50;99.90
19522;DHT22;9905;52.126;5.596;2024-01-30T10:54:44;11.50;99.90
19522;DHT22;9905;52.126;5.596;2024-01-30T10:57:12;11.50;99.90
19522;DHT22;9905;52.126;5.596;2024-01-30T10:59:40;11.60;99.90
19522;DHT22;9905;52.126;5.596;2024-01-30T11:02:07;11.60;99.90
19522;DHT22;9905;52.126;5.596;2024-01-30T11:04:40;11.60;99.90
19522;DHT22;9905;52.126;5.596;2024-01-30T11:07:17;11.60;99.90
19522;DHT22;9905;52.126;5.596;2024-01-30T11:09:51;11.60;99.90
19522;DHT22;9905;52.126;5.596;2024-01-30T11:12:22;11.60;99.90
19522;DHT22;9905;52.126;5.596;2024-01-30T11:14:49;11.60;99.90
19522;DHT22;9905;52.126;5.596;2024-01-30T11:17:16;11.60;99.90
19522;DHT22;9905;52.126;5.596;2024-01-30T11:19:43;11.60;99.90
19522;DHT22;9905;52.126;5.596;2024-01-30T11:22:10;11.50;99.90
19522;DHT22;9905;52.126;5.596;2024-01-30T11:24:39;11.60;99.90
19522;DHT22;9905;52.126;5.596;2024-01-30T11:27:09;11.60;99.90
19522;DHT22;9905;52.126;5.596;2024-01-30T11:29:36;11.70;99.90
19522;DHT22;9905;52.126;5.596;2024-01-30T11:32:04;11.70;99.90
19522;DHT22;9905;52.126;5.596;2024-01-30T11:34:32;11.80;99.90
19522;DHT22;9905;52.126;5.596;2024-01-30T11:37:03;11.80;99.90
19522;DHT22;9905;52.126;5.596;2024-01-30T11:39:36;11.80;99.90
19522;DHT22;9905;52.126;5.596;2024-01-30T11:42:06;11.80;99.90
19522;DHT22;9905;52.126;5.596;2024-01-30T11:44:35;11.80;99.90
19522;DHT22;9905;52.126;5.596;2024-01-30T11:47:03;11.70;99.90
19522;DHT22;9905;52.126;5.596;2024-01-30T11:49:29;11.70;99.90
19522;DHT22;9905;52.126;5.596;2024-01-30T11:51:56;11.70;99.90
19522;DHT22;9905;52.126;5.596;2024-01-30T11:54:23;11.60;99.90
19522;DHT22;9905;52.126;5.596;2024-01-30T11:56:50;11.60;99.90
19522;DHT22;9905;52.126;5.596;2024-01-30T11:59:17;11.60;99.90
19522;DHT22;9905;52.126;5.596;2024-01-30T12:01:45;11.50;99.90
19522;DHT22;9905;52.126;5.596;2024-01-30T12:04:11;11.50;99.90
19522;DHT22;9905;52.126;5.596;2024-01-30T12:06:38;11.40;99.90
19522;DHT22;9905;52.126;5.596;2024-01-30T12:09:06;11.30;99.90
19522;DHT22;9905;52.126;5.596;2024-01-30T12:11:43;11.30;99.90
19522;DHT22;9905;52.126;5.596;2024-01-30T12:14:11;11.20;99.90
19522;DHT22;9905;52.126;5.596;2024-01-30T12:16:38;11.20;99.90
19522;DHT22;9905;52.126;5.596;2024-01-30T12:19:06;11.20;99.90
19522;DHT22;9905;52.126;5.596;2024-01-30T12:21:34;11.20;99.90
19522;DHT22;9905;52.126;5.596;2024-01-30T12:24:01;11.20;99.90
19522;DHT22;9905;52.126;5.596;2024-01-30T12:26:28;11.30;99.90
19522;DHT22;9905;52.126;5.596;2024-01-30T12:28:55;11.40;99.90
19522;DHT22;9905;52.126;5.596;2024-01-30T12:31:25;11.50;99.90
19522;DHT22;9905;52.126;5.596;2024-01-30T12:33:53;11.60;99.90
19522;DHT22;9905;52.126;5.596;2024-01-30T12:36:21;11.50;99.90
19522;DHT22;9905;52.126;5.596;2024-01-30T12:38:48;11.40;99.90
19522;DHT22;9905;52.126;5.596;2024-01-30T12:41:15;11.30;99.90
19522;DHT22;9905;52.126;5.596;2024-01-30T12:43:42;11.20;99.90
19522;DHT22;9905;52.126;5.596;2024-01-30T12:46:08;11.00;99.90
19522;DHT22;9905;52.126;5.596;2024-01-30T12:48:35;10.90;99.90
19522;DHT22;9905;52.126;5.596;2024-01-30T12:51:02;10.80;99.90
19522;DHT22;9905;52.126;5.596;2024-01-30T12:53:31;10.80;99.90
19522;DHT22;9905;52.126;5.596;2024-01-30T12:55:58;10.70;99.90
19522;DHT22;9905;52.126;5.596;2024-01-30T12:58:24;10.60;99.90
19522;DHT22;9905;52.126;5.596;2024-01-30T13:00:52;10.60;99.90
19522;DHT22;9905;52.126;5.596;2024-01-30T13:03:19;10.40;99.90
19522;DHT22;9905;52.126;5.596;2024-01-30T13:05:46;10.40;99.90
19522;DHT22;9905;52.126;5.596;2024-01-30T13:08:13;10.40;99.90
19522;DHT22;9905;52.126;5.596;2024-01-30T13:10:41;10.40;99.90
19522;DHT22;9905;52.126;5.596;2024-01-30T13:13:08;10.30;99.90
19522;DHT22;9905;52.126;5.596;2024-01-30T13:15:35;10.20;99.90
19522;DHT22;9905;52.126;5.596;2024-01-30T13:18:01;10.20;99.90
19522;DHT22;9905;52.126;5.596;2024-01-30T13:20:29;10.10;99.90
19522;DHT22;9905;52.126;5.596;2024-01-30T13:22:55;10.10;99.90
19522;DHT22;9905;52.126;5.596;2024-01-30T13:25:22;10.10;99.90
19522;DHT22;9905;52.126;5.596;2024-01-30T13:27:50;10.20;99.90
19522;DHT22;9905;52.126;5.596;2024-01-30T13:30:17;10.20;99.90
19522;DHT22;9905;52.126;5.596;2024-01-30T13:32:44;10.20;99.90
19522;DHT22;9905;52.126;5.596;2024-01-30T13:35:11;10.10;99.90
19522;DHT22;9905;52.126;5.596;2024-01-30T13:37:38;10.10;99.90
19522;DHT22;9905;52.126;5.596;2024-01-30T13:40:06;10.10;99.90
19522;DHT22;9905;52.126;5.596;2024-01-30T13:42:34;10.10;99.90
19522;DHT22;9905;52.126;5.596;2024-01-30T13:45:02;10.00;99.90
19522;DHT22;9905;52.126;5.596;2024-01-30T13:47:29;10.00;99.90
19522;DHT22;9905;52.126;5.596;2024-01-30T13:49:56;10.00;99.90
19522;DHT22;9905;52.126;5.596;2024-01-30T13:52:23;10.00;99.90
19522;DHT22;9905;52.126;5.596;2024-01-30T13:54:49;10.10;99.90
19522;DHT22;9905;52.126;5.596;2024-01-30T13:57:16;10.00;99.90
19522;DHT22;9905;52.126;5.596;2024-01-30T13:59:43;10.00;99.90
19522;DHT22;9905;52.126;5.596;2024-01-30T14:02:11;9.90;99.90
19522;DHT22;9905;52.126;5.596;2024-01-30T14:04:38;9.80;99.90
19522;DHT22;9905;52.126;5.596;2024-01-30T14:07:05;9.70;99.90
19522;DHT22;9905;52.126;5.596;2024-01-30T14:09:32;9.70;99.90
19522;DHT22;9905;52.126;5.596;2024-01-30T14:11:59;9.60;99.90
19522;DHT22;9905;52.126;5.596;2024-01-30T14:14:26;9.60;99.90
19522;DHT22;9905;52.126;5.596;2024-01-30T14:16:53;9.60;99.90
19522;DHT22;9905;52.126;5.596;2024-01-30T14:19:22;9.60;99.90
19522;DHT22;9905;52.126;5.596;2024-01-30T14:21:48;9.60;99.90
19522;DHT22;9905;52.126;5.596;2024-01-30T14:24:15;9.60;99.90
19522;DHT22;9905;52.126;5.596;2024-01-30T14:26:42;9.60;99.90
19522;DHT22;9905;52.126;5.596;2024-01-30T14:29:09;9.60;99.90
19522;DHT22;9905;52.126;5.596;2024-01-30T14:31:36;9.60;99.90
19522;DHT22;9905;52.126;5.596;2024-01-30T14:34:03;9.60;99.90
19522;DHT22;9905;52.126;5.596;2024-01-30T14:36:31;9.60;99.90
19522;DHT22;9905;52.126;5.596;2024-01-30T14:38:58;9.60;99.90
19522;DHT22;9905;52.126;5.596;2024-01-30T14:41:25;9.60;99.90
19522;DHT22;9905;52.126;5.596;2024-01-30T14:43:51;9.60;99.90
19522;DHT22;9905;52.126;5.596;2024-01-30T14:46:18;9.60;99.90
19522;DHT22;9905;52.126;5.596;2024-01-30T14:48:45;9.60;99.90
19522;DHT22;9905;52.126;5.596;2024-01-30T14:51:12;9.60;99.90
19522;DHT22;9905;52.126;5.596;2024-01-30T14:53:40;9.50;99.90
19522;DHT22;9905;52.126;5.596;2024-01-30T14:56:07;9.50;99.90
19522;DHT22;9905;52.126;5.596;2024-01-30T14:58:34;9.50;99.90
19522;DHT22;9905;52.126;5.596;2024-01-30T15:01:01;9.50;99.90
19522;DHT22;9905;52.126;5.596;2024-01-30T15:03:28;9.40;99.90
19522;DHT22;9905;52.126;5.596;2024-01-30T15:05:55;9.40;99.90
19522;DHT22;9905;52.126;5.596;2024-01-30T15:08:22;9.20;99.90
19522;DHT22;9905;52.126;5.596;2024-01-30T15:10:50;9.20;99.90
19522;DHT22;9905;52.126;5.596;2024-01-30T15:13:17;9.10;99.90
19522;DHT22;9905;52.126;5.596;2024-01-30T15:15:44;9.10;99.90
19522;DHT22;9905;52.126;5.596;2024-01-30T15:18:10;9.10;99.90
19522;DHT22;9905;52.126;5.596;2024-01-30T15:20:37;9.00;99.90
19522;DHT22;9905;52.126;5.596;2024-01-30T15:23:04;8.90;99.90
19522;DHT22;9905;52.126;5.596;2024-01-30T15:25:31;8.90;99.90
19522;DHT22;9905;52.126;5.596;2024-01-30T15:27:59;8.90;99.90
19522;DHT22;9905;52.126;5.596;2024-01-30T15:30:26;8.80;99.90
19522;DHT22;9905;52.126;5.596;2024-01-30T15:32:52;8.80;99.90
19522;DHT22;9905;52.126;5.596;2024-01-30T15:35:19;8.70;99.90
19522;DHT22;9905;52.126;5.596;2024-01-30T15:37:46;8.70;99.90
19522;DHT22;9905;52.126;5.596;2024-01-30T15:40:13;8.70;99.90
19522;DHT22;9905;52.126;5.596;2024-01-30T15:42:40;8.70;99.90
19522;DHT22;9905;52.126;5.596;2024-01-30T15:45:08;8.70;99.90
19522;DHT22;9905;52.126;5.596;2024-01-30T15:47:34;8.70;99.90
19522;DHT22;9905;52.126;5.596;2024-01-30T15:50:02;8.70;99.90
19522;DHT22;9905;52.126;5.596;2024-01-30T15:52:29;8.70;99.90
19522;DHT22;9905;52.126;5.596;2024-01-30T15:54:56;8.60;99.90
19522;DHT22;9905;52.126;5.596;2024-01-30T15:57:22;8.60;99.90